KOGD Airport (Ogden-Hinckley) Information

FAA: OGD - ICAO: KOGD

KOGD Airport Location

State Utah
County Weber
City Ogden
KOGD Airport is 3 miles southwest of Ogden, UT.
Latitude 41-11-42.2533N
Longitude 112-00-43.9010W
Elevation 4,472ft

KOGD Airport METARs

METAR KOGD 181353Z 00000KT 10SM FEW120 M04/M09 A3004 RMK AO2 SLP189 T10441089 $
Altimeter 30.04"
Temperature -4.4°C (24.1°F)
Wind 0° at 0KT
Clouds few at 12,000ft
Visibility 10.0mi
Time observed: 2022-01-18T13:53:00Z

KOGD Airport Details

Status Operational
Activation December 1941
Ownership Public
Usage Public
Chart SALT LAKE CITY
ATC on-site Yes
Beacon schedule sunset-sunrise
Beacon color clear green

KOGD Airport Contacts

Owner OGDEN CITY CORPORATION
Owner address 2549 WASHINGTON BLVD, OGDEN, UT 84401
Owner phone 801-629-8100
Manager GALIS, INC.
Manager address 1700 VLY BK PZA; 300 S 4TH ST, LAS VEGAS, NV 89101
Manager phone 702-383-8811

KOGD Airport (Ogden-Hinckley) Radio Frequencies

KOGD (Airport) Radio Frequencies

UNICOM 122.95
Common traffic advisory frequency (CTAF) 118.7